Time;durP1;ratioP1;P1;durP2;ratioP2;P2;SDS_P1;SDS_P2;PMS_P1;PMS_P2;Temp;Humidity;BMP_temperature;BMP_pressure;BME280_temperature;BME280_humidity;BME280_pressure;Samples;Min_cycle;Max_cycle;Signal;HPM_P1;HPM_P2
2023/08/14 00:01:21;;;;;;;2.22;0.50;;;;;;;;;;5042387;28;20052;-60
2023/08/14 00:03:47;;;;;;;3.95;0.82;;;;;;;;;;5032568;28;20154;-63
2023/08/14 00:06:14;;;;;;;2.25;0.68;;;;;;;;;;5030559;28;20114;-63
2023/08/14 00:08:40;;;;;;;1.77;0.70;;;;;;;;;;5041941;28;20041;-62
2023/08/14 00:11:07;;;;;;;2.55;0.63;;;;;;;;;;5043399;28;20033;-63
2023/08/14 00:13:48;;;;;;;2.80;0.80;;;;;;;;;;5041310;28;20055;-64
2023/08/14 00:16:15;;;;;;;2.70;0.75;;;;;;;;;;5043197;28;20088;-62
2023/08/14 00:18:42;;;;;;;2.38;0.70;;;;;;;;;;5043674;28;20590;-62
2023/08/14 00:21:08;;;;;;;2.30;0.85;;;;;;;;;;5041747;28;21239;-64
2023/08/14 00:23:35;;;;;;;2.90;0.80;;;;;;;;;;5041226;28;20505;-62
2023/08/14 00:26:02;;;;;;;6.68;1.00;;;;;;;;;;5023799;28;20047;-61
2023/08/14 00:28:28;;;;;;;5.85;0.93;;;;;;;;;;5022846;28;20056;-61
2023/08/14 00:30:55;;;;;;;1.48;0.50;;;;;;;;;;5023010;28;20045;-63
2023/08/14 00:33:21;;;;;;;4.13;0.80;;;;;;;;;;5022944;28;20069;-61
2023/08/14 00:35:48;;;;;;;1.80;0.57;;;;;;;;;;5022258;28;20464;-62
2023/08/14 00:38:15;;;;;;;2.03;0.70;;;;;;;;;;5027681;28;20044;-62
2023/08/14 00:40:42;;;;;;;5.22;0.80;;;;;;;;;;5026647;28;20041;-62
2023/08/14 00:43:09;;;;;;;1.50;0.60;;;;;;;;;;5028885;28;20136;-64
2023/08/14 00:45:36;;;;;;;2.83;0.80;;;;;;;;;;5024779;28;20037;-63
2023/08/14 00:48:02;;;;;;;2.97;0.70;;;;;;;;;;5028837;28;20061;-63
2023/08/14 00:50:29;;;;;;;1.92;0.65;;;;;;;;;;5028085;28;20037;-63
2023/08/14 00:52:56;;;;;;;1.98;0.60;;;;;;;;;;5028003;28;20615;-64
2023/08/14 00:55:27;;;;;;;2.25;0.70;;;;;;;;;;5052576;28;20049;-63
2023/08/14 00:57:54;;;;;;;1.90;0.70;;;;;;;;;;5043879;28;20132;-64
2023/08/14 01:00:21;;;;;;;2.30;0.70;;;;;;;;;;5027931;28;20052;-64
2023/08/14 01:02:49;;;;;;;2.35;0.70;;;;;;;;;;5026929;28;20045;-62
2023/08/14 01:05:16;;;;;;;1.50;0.65;;;;;;;;;;5025528;28;20045;-62
2023/08/14 01:07:43;;;;;;;4.65;0.65;;;;;;;;;;5030412;28;20508;-62
2023/08/14 01:10:11;;;;;;;2.13;0.70;;;;;;;;;;5031780;28;20049;-62
2023/08/14 01:12:53;;;;;;;1.63;0.60;;;;;;;;;;5025551;28;20060;-61
2023/08/14 01:15:23;;;;;;;3.95;0.60;;;;;;;;;;5028622;28;20115;-61
2023/08/14 01:18:01;;;;;;;2.35;0.80;;;;;;;;;;5043599;28;20041;-62
2023/08/14 01:20:32;;;;;;;3.00;0.90;;;;;;;;;;5036506;28;20120;-62
2023/08/14 01:23:07;;;;;;;3.35;0.70;;;;;;;;;;5035770;28;20408;-62
2023/08/14 01:25:37;;;;;;;2.08;0.50;;;;;;;;;;5034873;28;20121;-61
2023/08/14 01:28:04;;;;;;;3.05;1.00;;;;;;;;;;5056679;28;20040;-62
2023/08/14 01:30:31;;;;;;;2.40;0.75;;;;;;;;;;5054281;28;20097;-61
2023/08/14 01:32:58;;;;;;;2.97;0.70;;;;;;;;;;5055766;28;20041;-61
2023/08/14 01:35:27;;;;;;;3.97;0.93;;;;;;;;;;5054540;28;20060;-61
2023/08/14 01:38:02;;;;;;;2.72;0.90;;;;;;;;;;5051538;28;20097;-62
2023/08/14 01:40:45;;;;;;;2.58;0.80;;;;;;;;;;5039124;28;20094;-63
2023/08/14 01:45:39;;;;;;;1.80;0.60;;;;;;;;;;5027964;22;20064;-62
2023/08/14 01:48:07;;;;;;;2.22;0.65;;;;;;;;;;5037093;28;20037;-62
2023/08/14 01:50:34;;;;;;;5.80;0.82;;;;;;;;;;5035480;28;20041;-62
2023/08/14 01:53:01;;;;;;;2.47;0.73;;;;;;;;;;5038779;28;20441;-62
2023/08/14 01:55:28;;;;;;;1.95;0.60;;;;;;;;;;5036887;28;20134;-63
2023/08/14 01:57:55;;;;;;;2.13;0.70;;;;;;;;;;5038407;28;20063;-63
2023/08/14 02:00:21;;;;;;;2.58;0.60;;;;;;;;;;5023783;28;20087;-63
2023/08/14 02:02:48;;;;;;;1.90;0.60;;;;;;;;;;5038903;28;20120;-63
2023/08/14 02:05:15;;;;;;;2.28;0.80;;;;;;;;;;5041725;28;20424;-62
2023/08/14 02:07:42;;;;;;;2.80;0.70;;;;;;;;;;5041464;28;20132;-63
2023/08/14 02:10:28;;;;;;;2.30;0.60;;;;;;;;;;5033747;28;20052;-62
2023/08/14 02:12:55;;;;;;;2.85;0.70;;;;;;;;;;5034586;28;20124;-62
2023/08/14 02:15:22;;;;;;;3.25;1.05;;;;;;;;;;5036553;28;20170;-62
2023/08/14 02:17:49;;;;;;;3.65;1.25;;;;;;;;;;5035375;28;20152;-61
2023/08/14 02:20:16;;;;;;;3.67;1.15;;;;;;;;;;5035595;28;20128;-63
2023/08/14 02:22:43;;;;;;;2.72;0.88;;;;;;;;;;5034559;28;20105;-63
2023/08/14 02:25:10;;;;;;;4.60;1.35;;;;;;;;;;5035575;28;20037;-62
2023/08/14 02:27:36;;;;;;;2.78;1.13;;;;;;;;;;5035282;28;20040;-62
2023/08/14 02:30:03;;;;;;;4.22;1.10;;;;;;;;;;5034454;28;20045;-62
2023/08/14 02:32:30;;;;;;;3.75;1.15;;;;;;;;;;5024953;28;20390;-61
2023/08/14 02:34:56;;;;;;;2.20;0.90;;;;;;;;;;5034427;28;20096;-62
2023/08/14 02:37:23;;;;;;;4.03;1.00;;;;;;;;;;5034249;28;20090;-62
2023/08/14 02:39:50;;;;;;;3.13;0.93;;;;;;;;;;5033922;28;20327;-63
2023/08/14 02:42:17;;;;;;;3.17;0.90;;;;;;;;;;5032356;28;20041;-61
2023/08/14 02:44:43;;;;;;;2.78;1.00;;;;;;;;;;5032621;28;20045;-62
2023/08/14 02:47:10;;;;;;;2.85;1.00;;;;;;;;;;5035484;28;20040;-64
2023/08/14 02:49:37;;;;;;;5.57;1.10;;;;;;;;;;5037752;28;20110;-62
2023/08/14 02:52:04;;;;;;;3.50;1.00;;;;;;;;;;5038044;28;20123;-62
2023/08/14 02:54:30;;;;;;;3.33;1.17;;;;;;;;;;5037872;28;20150;-63
2023/08/14 02:56:57;;;;;;;3.55;1.42;;;;;;;;;;5038783;28;20047;-61
2023/08/14 02:59:23;;;;;;;4.32;1.67;;;;;;;;;;5035239;28;20063;-64
2023/08/14 03:01:50;;;;;;;4.32;1.90;;;;;;;;;;5038619;28;20051;-63
2023/08/14 03:04:17;;;;;;;4.10;1.50;;;;;;;;;;5037463;28;20037;-63
2023/08/14 03:06:43;;;;;;;3.88;1.52;;;;;;;;;;5037651;28;20036;-63
2023/08/14 03:09:11;;;;;;;4.05;1.38;;;;;;;;;;5037759;28;20111;-63
2023/08/14 03:11:38;;;;;;;7.50;1.70;;;;;;;;;;5037661;28;20037;-61
2023/08/14 03:14:05;;;;;;;4.47;1.50;;;;;;;;;;5037462;28;20087;-63
2023/08/14 03:16:32;;;;;;;3.58;1.60;;;;;;;;;;5037404;28;20065;-62
2023/08/14 03:18:58;;;;;;;5.93;1.48;;;;;;;;;;5037017;28;20037;-62
2023/08/14 03:21:25;;;;;;;5.57;1.70;;;;;;;;;;5034597;28;20032;-65
2023/08/14 03:23:51;;;;;;;9.10;4.88;;;;;;;;;;5040198;28;20112;-62
2023/08/14 03:26:18;;;;;;;8.20;4.55;;;;;;;;;;5040457;28;20045;-66
2023/08/14 03:28:45;;;;;;;7.88;1.70;;;;;;;;;;5038484;28;20040;-66
2023/08/14 03:31:11;;;;;;;5.60;1.67;;;;;;;;;;5042961;28;20109;-61
2023/08/14 03:33:38;;;;;;;6.30;1.77;;;;;;;;;;5051397;28;20145;-63
2023/08/14 03:36:05;;;;;;;4.88;1.60;;;;;;;;;;5052676;28;20144;-62
2023/08/14 03:38:31;;;;;;;4.10;1.70;;;;;;;;;;5056173;28;20053;-64
2023/08/14 03:40:58;;;;;;;4.97;2.25;;;;;;;;;;5061124;28;20037;-64
2023/08/14 03:43:25;;;;;;;5.47;2.05;;;;;;;;;;5056042;28;21347;-66
2023/08/14 03:45:51;;;;;;;4.57;1.90;;;;;;;;;;5058200;28;20148;-64
2023/08/14 03:48:18;;;;;;;6.78;2.78;;;;;;;;;;5058987;28;20048;-62
2023/08/14 03:50:47;;;;;;;5.10;1.83;;;;;;;;;;5057468;28;20056;-66
2023/08/14 03:59:25;;;;;;;7.88;2.05;;;;;;;;;;5203878;22;20108;-65
2023/08/14 04:01:51;;;;;;;4.93;2.40;;;;;;;;;;4897306;29;20126;-62
2023/08/14 04:04:18;;;;;;;17.17;9.70;;;;;;;;;;4906324;29;20051;-63
2023/08/14 04:06:47;;;;;;;7.35;2.80;;;;;;;;;;4908523;28;20056;-63
2023/08/14 04:09:13;;;;;;;6.57;2.10;;;;;;;;;;4909857;29;20088;-62
2023/08/14 04:11:40;;;;;;;5.03;1.95;;;;;;;;;;4907583;28;20567;-61
2023/08/14 04:14:07;;;;;;;5.93;2.20;;;;;;;;;;4909082;29;20043;-62
2023/08/14 04:16:46;;;;;;;5.70;2.22;;;;;;;;;;4911784;28;20062;-60
2023/08/14 04:19:18;;;;;;;5.85;2.20;;;;;;;;;;4913058;29;20405;-62
2023/08/14 04:21:45;;;;;;;5.05;1.90;;;;;;;;;;4913659;28;20130;-63
2023/08/14 04:24:12;;;;;;;6.03;2.08;;;;;;;;;;4913839;29;20047;-63
2023/08/14 04:26:39;;;;;;;4.88;1.98;;;;;;;;;;4913514;28;20062;-63
2023/08/14 04:29:06;;;;;;;5.90;2.50;;;;;;;;;;4916129;29;20068;-64
2023/08/14 04:31:40;;;;;;;5.72;2.13;;;;;;;;;;4917475;29;20400;-62
2023/08/14 04:34:08;;;;;;;6.60;1.98;;;;;;;;;;4905609;29;20523;-63
2023/08/14 04:36:35;;;;;;;4.45;2.08;;;;;;;;;;4917099;29;20075;-62
2023/08/14 04:39:03;;;;;;;8.05;2.10;;;;;;;;;;4918119;29;20126;-63
2023/08/14 04:41:30;;;;;;;4.00;1.92;;;;;;;;;;4915956;28;20036;-63
2023/08/14 04:43:57;;;;;;;5.43;2.20;;;;;;;;;;4914063;29;20429;-64
2023/08/14 04:46:30;;;;;;;7.30;2.30;;;;;;;;;;4918203;29;20039;-64
2023/08/14 04:49:00;;;;;;;5.32;2.10;;;;;;;;;;4922535;29;20044;-63
2023/08/14 04:51:27;;;;;;;5.53;2.25;;;;;;;;;;4915634;28;20040;-63
2023/08/14 04:53:54;;;;;;;5.32;2.03;;;;;;;;;;4916456;29;20044;-63
2023/08/14 04:56:21;;;;;;;6.53;2.30;;;;;;;;;;4917785;29;20051;-65
2023/08/14 04:58:47;;;;;;;5.07;2.05;;;;;;;;;;4916391;29;20547;-64
2023/08/14 05:01:14;;;;;;;4.78;1.92;;;;;;;;;;4916850;29;20055;-65
2023/08/14 05:03:41;;;;;;;8.60;2.38;;;;;;;;;;4902827;29;20036;-65
2023/08/14 05:06:08;;;;;;;5.00;2.22;;;;;;;;;;4915806;29;20050;-66
2023/08/14 05:08:35;;;;;;;7.30;2.22;;;;;;;;;;4914607;29;20048;-66
2023/08/14 05:11:01;;;;;;;6.45;2.47;;;;;;;;;;4913769;29;20092;-64
2023/08/14 05:13:28;;;;;;;6.82;2.20;;;;;;;;;;4914894;29;20043;-65
2023/08/14 05:15:56;;;;;;;6.22;2.33;;;;;;;;;;4914112;29;20055;-65
2023/08/14 05:18:22;;;;;;;4.97;1.85;;;;;;;;;;4913075;29;20390;-69
2023/08/14 05:20:50;;;;;;;6.22;2.28;;;;;;;;;;4914694;28;20052;-64
2023/08/14 05:23:16;;;;;;;5.25;2.30;;;;;;;;;;4919501;29;20123;-66
2023/08/14 05:25:44;;;;;;;5.80;2.17;;;;;;;;;;4916840;28;20047;-66
2023/08/14 05:28:11;;;;;;;6.50;1.98;;;;;;;;;;4917051;29;20064;-65
2023/08/14 05:30:38;;;;;;;5.35;2.00;;;;;;;;;;4918266;29;20389;-65
2023/08/14 05:33:05;;;;;;;7.10;2.30;;;;;;;;;;4908226;29;20123;-66
2023/08/14 05:35:31;;;;;;;6.20;1.80;;;;;;;;;;4914669;29;20115;-65
2023/08/14 05:37:58;;;;;;;6.10;2.05;;;;;;;;;;4901084;29;20051;-65
2023/08/14 05:40:28;;;;;;;7.68;2.30;;;;;;;;;;4918066;29;20038;-65
2023/08/14 05:43:04;;;;;;;6.55;2.25;;;;;;;;;;4916546;29;20111;-63
2023/08/14 05:45:31;;;;;;;5.55;2.25;;;;;;;;;;4916849;29;20201;-64
2023/08/14 05:47:58;;;;;;;8.68;2.25;;;;;;;;;;4919119;29;20047;-64
2023/08/14 05:50:26;;;;;;;4.82;2.17;;;;;;;;;;4919062;29;20071;-63
2023/08/14 05:52:56;;;;;;;5.82;2.20;;;;;;;;;;4919939;29;20036;-63
2023/08/14 05:55:22;;;;;;;5.80;1.83;;;;;;;;;;4921229;29;20650;-63
2023/08/14 05:57:49;;;;;;;5.85;1.95;;;;;;;;;;4915903;29;20036;-62
2023/08/14 06:00:16;;;;;;;6.70;1.90;;;;;;;;;;4918669;29;20055;-64
2023/08/14 06:02:44;;;;;;;6.38;1.90;;;;;;;;;;4922478;28;20079;-64
2023/08/14 06:05:11;;;;;;;7.35;2.35;;;;;;;;;;4918358;29;20051;-64
2023/08/14 06:07:37;;;;;;;6.38;2.03;;;;;;;;;;4917557;29;20060;-64
2023/08/14 06:10:05;;;;;;;5.03;1.60;;;;;;;;;;4917897;29;20531;-62
2023/08/14 06:12:32;;;;;;;5.20;1.88;;;;;;;;;;4916578;29;20047;-65
2023/08/14 06:14:59;;;;;;;5.18;2.30;;;;;;;;;;4916609;29;20959;-64
2023/08/14 06:17:26;;;;;;;8.82;2.50;;;;;;;;;;4917352;29;20071;-66
2023/08/14 06:19:53;;;;;;;6.82;1.83;;;;;;;;;;4915983;29;20051;-64
2023/08/14 06:22:20;;;;;;;6.60;1.75;;;;;;;;;;4915803;29;20464;-63
2023/08/14 06:24:47;;;;;;;5.05;1.90;;;;;;;;;;4916152;29;20039;-65
2023/08/14 06:27:13;;;;;;;6.72;2.33;;;;;;;;;;4917877;29;20156;-64
2023/08/14 06:29:40;;;;;;;4.65;2.05;;;;;;;;;;4916132;29;20055;-64
2023/08/14 06:32:06;;;;;;;4.57;1.88;;;;;;;;;;4916657;29;20043;-65
2023/08/14 06:34:33;;;;;;;5.72;2.15;;;;;;;;;;4915866;29;20483;-63
2023/08/14 06:37:00;;;;;;;7.78;1.90;;;;;;;;;;4916550;29;20126;-63
2023/08/14 06:39:27;;;;;;;9.02;1.92;;;;;;;;;;4915558;29;20052;-63
2023/08/14 06:41:53;;;;;;;5.85;1.73;;;;;;;;;;4919984;29;20720;-61
2023/08/14 06:44:20;;;;;;;4.57;1.80;;;;;;;;;;4917414;29;20036;-63
2023/08/14 06:46:47;;;;;;;4.75;1.70;;;;;;;;;;4915458;29;20111;-63
2023/08/14 06:49:13;;;;;;;9.20;1.40;;;;;;;;;;4917165;29;20420;-63
2023/08/14 06:51:40;;;;;;;3.67;1.50;;;;;;;;;;4914547;29;20353;-63
2023/08/14 06:54:07;;;;;;;6.25;1.83;;;;;;;;;;4916448;29;20036;-64
2023/08/14 06:56:34;;;;;;;4.85;1.50;;;;;;;;;;4916184;29;20044;-64
2023/08/14 06:59:00;;;;;;;4.30;1.50;;;;;;;;;;4916021;29;20063;-64
2023/08/14 07:01:27;;;;;;;4.22;1.55;;;;;;;;;;4916982;29;20058;-64
2023/08/14 07:03:54;;;;;;;4.00;1.58;;;;;;;;;;4915752;29;20043;-63
2023/08/14 07:06:20;;;;;;;4.68;1.58;;;;;;;;;;4917761;29;20044;-63
2023/08/14 07:08:47;;;;;;;8.32;1.55;;;;;;;;;;4913714;29;20055;-64
2023/08/14 07:11:14;;;;;;;4.32;1.67;;;;;;;;;;4917369;29;20377;-62
2023/08/14 07:13:40;;;;;;;5.60;1.73;;;;;;;;;;4914971;29;20047;-63
2023/08/14 07:16:07;;;;;;;4.68;1.48;;;;;;;;;;4914976;29;20052;-65
2023/08/14 07:18:33;;;;;;;4.97;1.40;;;;;;;;;;4914164;29;20066;-63
2023/08/14 07:21:00;;;;;;;6.45;1.70;;;;;;;;;;4915984;29;20134;-64
2023/08/14 07:23:27;;;;;;;5.00;1.67;;;;;;;;;;4915904;29;20047;-65
2023/08/14 07:25:53;;;;;;;4.32;1.25;;;;;;;;;;4915284;29;20469;-64
2023/08/14 07:28:20;;;;;;;7.50;1.88;;;;;;;;;;4915726;29;20150;-63
2023/08/14 07:30:47;;;;;;;3.92;1.48;;;;;;;;;;4915801;29;20043;-63
2023/08/14 07:33:15;;;;;;;5.22;1.58;;;;;;;;;;4914933;29;20048;-62
2023/08/14 07:35:42;;;;;;;3.90;1.33;;;;;;;;;;4914054;29;20090;-63
2023/08/14 07:38:10;;;;;;;7.40;1.90;;;;;;;;;;4914693;29;20040;-63
2023/08/14 07:40:36;;;;;;;5.00;1.73;;;;;;;;;;4913620;29;20069;-62
2023/08/14 07:43:03;;;;;;;4.88;1.50;;;;;;;;;;4913262;29;20036;-63
2023/08/14 07:45:30;;;;;;;5.05;1.65;;;;;;;;;;4914532;29;20044;-62
2023/08/14 07:47:56;;;;;;;5.55;1.50;;;;;;;;;;4914750;29;20036;-63
2023/08/14 07:50:23;;;;;;;4.55;1.50;;;;;;;;;;4915012;29;20044;-63
2023/08/14 07:52:49;;;;;;;8.07;1.38;;;;;;;;;;4912919;29;20119;-63
2023/08/14 07:55:16;;;;;;;4.75;1.50;;;;;;;;;;4914118;29;20135;-63
2023/08/14 07:57:45;;;;;;;5.22;1.67;;;;;;;;;;4913232;29;20385;-63
2023/08/14 08:00:16;;;;;;;4.88;1.42;;;;;;;;;;4914875;29;20064;-63
2023/08/14 08:02:42;;;;;;;5.25;1.50;;;;;;;;;;4911297;29;20054;-63
2023/08/14 08:05:09;;;;;;;4.13;1.35;;;;;;;;;;4915122;29;20046;-63
2023/08/14 08:07:36;;;;;;;3.10;1.10;;;;;;;;;;4914249;29;20044;-63
2023/08/14 08:10:03;;;;;;;5.47;1.48;;;;;;;;;;4914307;29;20032;-63
2023/08/14 08:12:29;;;;;;;5.28;1.50;;;;;;;;;;4913877;29;20040;-63
2023/08/14 08:14:56;;;;;;;4.35;1.60;;;;;;;;;;4915909;29;20512;-63
2023/08/14 08:17:23;;;;;;;4.97;1.40;;;;;;;;;;4913693;29;20076;-64
2023/08/14 08:19:50;;;;;;;5.88;1.45;;;;;;;;;;4915779;29;20070;-62
2023/08/14 08:22:17;;;;;;;4.38;1.38;;;;;;;;;;4915469;29;20046;-62
2023/08/14 08:24:43;;;;;;;5.20;1.40;;;;;;;;;;4913804;29;20429;-64
2023/08/14 08:27:10;;;;;;;4.68;1.33;;;;;;;;;;4915594;29;20103;-64
2023/08/14 08:29:37;;;;;;;4.43;1.55;;;;;;;;;;4915357;29;20043;-63
2023/08/14 08:32:04;;;;;;;3.78;1.30;;;;;;;;;;4904619;29;20036;-62
2023/08/14 08:34:30;;;;;;;4.28;1.63;;;;;;;;;;4913993;28;20573;-64
2023/08/14 08:36:57;;;;;;;12.20;4.90;;;;;;;;;;4915019;29;20048;-65
2023/08/14 08:39:23;;;;;;;9.50;1.65;;;;;;;;;;4914138;29;20044;-65
2023/08/14 08:41:50;;;;;;;5.63;2.00;;;;;;;;;;4915470;29;20043;-64
2023/08/14 08:44:26;;;;;;;7.38;1.67;;;;;;;;;;4914527;29;20047;-64
2023/08/14 08:47:09;;;;;;;6.40;1.98;;;;;;;;;;4914298;29;20040;-65
2023/08/14 08:49:35;;;;;;;5.53;1.58;;;;;;;;;;4912535;29;20049;-65
2023/08/14 08:52:05;;;;;;;4.60;1.52;;;;;;;;;;4915616;29;20047;-64
2023/08/14 08:54:32;;;;;;;4.63;1.60;;;;;;;;;;4910616;29;20032;-65
2023/08/14 08:56:59;;;;;;;4.63;1.63;;;;;;;;;;4913397;29;20132;-64
2023/08/14 08:59:27;;;;;;;4.00;1.55;;;;;;;;;;4916210;29;20043;-65
2023/08/14 09:01:54;;;;;;;5.40;1.52;;;;;;;;;;4920875;29;20039;-64
2023/08/14 09:04:20;;;;;;;5.65;1.80;;;;;;;;;;4916841;29;20072;-66
2023/08/14 09:06:47;;;;;;;4.45;1.50;;;;;;;;;;4902364;29;20055;-66
2023/08/14 09:09:14;;;;;;;6.53;2.05;;;;;;;;;;4917860;28;20091;-64
2023/08/14 09:11:40;;;;;;;4.95;1.73;;;;;;;;;;4921824;29;20044;-66
2023/08/14 09:14:07;;;;;;;7.15;2.03;;;;;;;;;;4917586;29;20488;-64
2023/08/14 09:16:34;;;;;;;5.07;1.80;;;;;;;;;;4919996;29;20075;-65
2023/08/14 09:19:01;;;;;;;4.03;1.77;;;;;;;;;;4925902;29;20036;-65
2023/08/14 09:21:28;;;;;;;6.13;2.15;;;;;;;;;;4921833;29;20044;-64
2023/08/14 09:23:55;;;;;;;4.38;1.90;;;;;;;;;;4920001;29;20054;-63
2023/08/14 09:26:22;;;;;;;3.83;1.73;;;;;;;;;;4920815;29;20157;-63
2023/08/14 09:28:49;;;;;;;5.50;1.90;;;;;;;;;;4919578;29;20040;-63
2023/08/14 09:35:22;;;;;;;5.57;2.10;;;;;;;;;;5031688;27;20508;-65
2023/08/14 09:37:49;;;;;;;7.25;2.05;;;;;;;;;;5028501;28;20049;-65
2023/08/14 09:40:17;;;;;;;6.28;2.00;;;;;;;;;;5012964;28;20143;-64
2023/08/14 09:42:44;;;;;;;6.32;2.00;;;;;;;;;;5013283;28;20037;-65
2023/08/14 09:45:12;;;;;;;7.50;2.10;;;;;;;;;;5014735;28;20042;-64
2023/08/14 09:47:41;;;;;;;11.75;2.13;;;;;;;;;;5012980;28;20537;-64
2023/08/14 09:50:07;;;;;;;6.55;1.73;;;;;;;;;;5013307;28;20120;-64
2023/08/14 09:52:34;;;;;;;5.32;1.95;;;;;;;;;;5012775;28;20874;-63
2023/08/14 09:55:04;;;;;;;5.22;1.80;;;;;;;;;;5014051;28;20053;-64
2023/08/14 09:57:31;;;;;;;5.43;2.08;;;;;;;;;;5013370;28;20040;-64
2023/08/14 09:59:57;;;;;;;4.78;1.90;;;;;;;;;;5013303;28;20038;-64
2023/08/14 10:02:25;;;;;;;3.92;1.50;;;;;;;;;;5011629;28;20184;-63
2023/08/14 10:04:52;;;;;;;9.02;2.05;;;;;;;;;;5013566;28;21046;-64
2023/08/14 10:07:20;;;;;;;7.28;1.77;;;;;;;;;;5012818;28;21071;-64
2023/08/14 10:09:50;;;;;;;5.30;1.80;;;;;;;;;;5011643;28;20057;-61
2023/08/14 10:12:18;;;;;;;5.78;1.85;;;;;;;;;;5027249;28;21286;-64
2023/08/14 10:14:48;;;;;;;3.58;1.42;;;;;;;;;;5012911;28;20050;-61
2023/08/14 10:17:21;;;;;;;7.10;1.92;;;;;;;;;;5011308;28;20704;-65
2023/08/14 10:19:52;;;;;;;5.18;2.00;;;;;;;;;;5013441;28;20057;-63
2023/08/14 10:22:20;;;;;;;5.10;1.67;;;;;;;;;;5026757;28;20048;-63
2023/08/14 10:24:47;;;;;;;6.80;1.83;;;;;;;;;;5012978;28;20526;-63
2023/08/14 10:27:13;;;;;;;5.05;1.50;;;;;;;;;;5028578;28;20038;-63
2023/08/14 10:29:40;;;;;;;5.15;1.30;;;;;;;;;;5011654;28;20033;-63
2023/08/14 10:32:07;;;;;;;7.50;1.80;;;;;;;;;;5011527;28;20231;-64
2023/08/14 10:34:35;;;;;;;4.25;1.83;;;;;;;;;;5012500;28;20045;-64
2023/08/14 10:37:01;;;;;;;4.38;1.48;;;;;;;;;;5013080;28;20038;-64
2023/08/14 10:39:35;;;;;;;4.32;1.30;;;;;;;;;;5011936;28;20065;-64
2023/08/14 10:42:04;;;;;;;5.05;1.80;;;;;;;;;;5012117;28;20469;-65
2023/08/14 10:44:37;;;;;;;4.22;1.60;;;;;;;;;;5011273;28;20038;-64
2023/08/14 10:47:07;;;;;;;3.65;1.38;;;;;;;;;;4999697;28;20038;-64
2023/08/14 10:49:43;;;;;;;3.70;1.48;;;;;;;;;;5013466;28;20447;-63
2023/08/14 10:52:13;;;;;;;6.10;1.75;;;;;;;;;;4997916;28;20126;-65
2023/08/14 10:54:40;;;;;;;7.32;1.73;;;;;;;;;;4997447;28;20104;-65
2023/08/14 10:57:08;;;;;;;7.72;1.60;;;;;;;;;;4999787;28;20061;-64
2023/08/14 10:59:35;;;;;;;6.70;1.77;;;;;;;;;;4997832;28;20121;-63
2023/08/14 11:02:05;;;;;;;5.22;1.63;;;;;;;;;;4998971;28;20544;-64
2023/08/14 11:04:36;;;;;;;5.93;1.80;;;;;;;;;;4997676;28;20041;-64
2023/08/14 11:07:05;;;;;;;5.22;1.58;;;;;;;;;;4997682;28;20802;-65
2023/08/14 11:09:36;;;;;;;4.47;1.67;;;;;;;;;;4998513;28;20053;-65
2023/08/14 11:12:05;;;;;;;4.88;1.58;;;;;;;;;;5012764;28;20406;-59
2023/08/14 11:14:32;;;;;;;5.38;1.48;;;;;;;;;;4998444;28;20057;-63
2023/08/14 11:16:59;;;;;;;4.60;1.90;;;;;;;;;;4998837;28;20050;-63
2023/08/14 11:19:25;;;;;;;6.32;1.40;;;;;;;;;;5000087;28;20034;-64
2023/08/14 11:21:52;;;;;;;3.42;1.33;;;;;;;;;;4997676;28;20470;-62
2023/08/14 11:24:19;;;;;;;4.82;1.73;;;;;;;;;;4998289;28;20363;-62
2023/08/14 11:26:45;;;;;;;4.57;1.40;;;;;;;;;;4998092;28;20045;-59
2023/08/14 11:29:12;;;;;;;7.38;1.60;;;;;;;;;;4998184;28;20036;-63
2023/08/14 11:31:39;;;;;;;4.93;1.50;;;;;;;;;;4996140;28;20046;-66
2023/08/14 11:34:06;;;;;;;7.88;1.70;;;;;;;;;;4999157;28;20050;-64
2023/08/14 11:36:32;;;;;;;4.70;1.50;;;;;;;;;;4997074;28;20046;-63
2023/08/14 11:38:59;;;;;;;5.25;1.55;;;;;;;;;;4999513;28;20141;-63
2023/08/14 11:41:26;;;;;;;4.90;1.45;;;;;;;;;;4995656;28;20033;-60
2023/08/14 11:43:52;;;;;;;5.20;1.50;;;;;;;;;;4997132;28;20398;-64
2023/08/14 11:46:20;;;;;;;4.68;1.30;;;;;;;;;;4998136;28;20188;-64
2023/08/14 11:48:46;;;;;;;3.85;1.33;;;;;;;;;;4996767;28;20525;-62
2023/08/14 11:51:15;;;;;;;3.10;1.30;;;;;;;;;;4996572;28;20042;-61
2023/08/14 11:53:42;;;;;;;6.13;1.42;;;;;;;;;;4994962;28;20046;-64
2023/08/14 11:56:09;;;;;;;5.68;1.60;;;;;;;;;;4997147;28;20042;-64
2023/08/14 11:58:39;;;;;;;4.82;1.42;;;;;;;;;;4994385;28;20030;-61
2023/08/14 12:01:07;;;;;;;4.10;1.52;;;;;;;;;;4996366;28;20120;-56
2023/08/14 12:03:34;;;;;;;4.07;1.30;;;;;;;;;;4995242;28;20960;-62
2023/08/14 12:06:02;;;;;;;6.50;1.70;;;;;;;;;;5011373;28;20042;-61
2023/08/14 12:08:29;;;;;;;5.10;1.48;;;;;;;;;;4996848;28;20050;-60
2023/08/14 12:10:56;;;;;;;3.85;1.77;;;;;;;;;;4994108;28;20049;-63
2023/08/14 12:13:22;;;;;;;5.95;1.95;;;;;;;;;;4996357;28;20299;-62
2023/08/14 12:15:49;;;;;;;4.13;1.58;;;;;;;;;;4995669;28;20483;-60
2023/08/14 12:18:23;;;;;;;6.13;1.98;;;;;;;;;;4997194;28;20104;-62
2023/08/14 12:20:53;;;;;;;4.05;1.70;;;;;;;;;;4994812;28;20558;-62
2023/08/14 12:23:22;;;;;;;6.80;2.75;;;;;;;;;;4996024;28;20079;-61
2023/08/14 12:25:49;;;;;;;7.35;2.42;;;;;;;;;;4996240;28;20088;-60
2023/08/14 12:28:16;;;;;;;12.75;4.55;;;;;;;;;;4997968;28;20034;-60
2023/08/14 12:30:44;;;;;;;6.82;2.10;;;;;;;;;;4993676;28;20393;-60
2023/08/14 12:33:14;;;;;;;7.20;2.50;;;;;;;;;;4995023;28;20321;-60
2023/08/14 12:35:40;;;;;;;6.50;1.90;;;;;;;;;;4994158;28;20052;-59
2023/08/14 12:38:07;;;;;;;7.35;1.95;;;;;;;;;;4995422;28;20046;-60
2023/08/14 12:40:34;;;;;;;5.35;1.77;;;;;;;;;;4994529;28;20048;-61
2023/08/14 12:43:01;;;;;;;7.30;2.00;;;;;;;;;;4994924;28;20072;-60
2023/08/14 12:45:28;;;;;;;7.55;2.20;;;;;;;;;;4993951;28;20050;-60
2023/08/14 12:47:55;;;;;;;5.80;1.90;;;;;;;;;;4995050;28;20061;-61
2023/08/14 12:50:22;;;;;;;7.13;1.83;;;;;;;;;;5008202;28;20137;-60
2023/08/14 12:52:48;;;;;;;6.32;2.75;;;;;;;;;;4991112;28;20046;-61
2023/08/14 12:55:15;;;;;;;6.28;2.00;;;;;;;;;;4993731;28;20046;-63
2023/08/14 12:57:42;;;;;;;6.45;2.00;;;;;;;;;;4991367;28;20042;-62
2023/08/14 13:00:09;;;;;;;5.22;1.95;;;;;;;;;;4994243;28;20116;-62
2023/08/14 13:02:36;;;;;;;11.50;2.20;;;;;;;;;;4990173;28;20038;-63
2023/08/14 13:05:03;;;;;;;9.13;2.17;;;;;;;;;;4990891;28;20045;-62
2023/08/14 13:07:30;;;;;;;5.70;2.00;;;;;;;;;;4991408;28;20492;-61
2023/08/14 13:09:57;;;;;;;7.38;2.05;;;;;;;;;;4991827;28;20482;-62
2023/08/14 13:12:23;;;;;;;9.20;2.33;;;;;;;;;;4991011;28;20132;-62
2023/08/14 13:14:50;;;;;;;14.48;2.60;;;;;;;;;;4992510;28;20510;-61
2023/08/14 13:17:17;;;;;;;9.25;2.03;;;;;;;;;;4992145;28;20070;-63
2023/08/14 13:19:44;;;;;;;7.18;2.00;;;;;;;;;;4990338;28;20761;-61
2023/08/14 13:22:12;;;;;;;11.52;2.65;;;;;;;;;;4992189;28;20026;-62
2023/08/14 13:24:39;;;;;;;8.27;2.15;;;;;;;;;;4990198;28;20069;-61
2023/08/14 13:27:06;;;;;;;12.15;2.33;;;;;;;;;;4993597;28;20046;-60
2023/08/14 13:29:32;;;;;;;6.00;2.35;;;;;;;;;;4992056;28;20504;-60
2023/08/14 13:31:59;;;;;;;6.60;2.40;;;;;;;;;;4990939;28;20069;-61
2023/08/14 13:34:25;;;;;;;6.50;1.88;;;;;;;;;;4991319;28;20052;-62
2023/08/14 13:36:52;;;;;;;6.28;2.38;;;;;;;;;;4992735;28;20041;-62
2023/08/14 13:39:18;;;;;;;9.63;2.05;;;;;;;;;;4992699;28;20076;-63
2023/08/14 13:41:45;;;;;;;5.05;1.90;;;;;;;;;;4991644;28;20112;-64
2023/08/14 13:44:12;;;;;;;5.53;2.03;;;;;;;;;;4990383;28;20041;-61
2023/08/14 13:46:38;;;;;;;5.40;1.80;;;;;;;;;;4990867;28;20398;-64
2023/08/14 13:49:06;;;;;;;4.07;1.70;;;;;;;;;;5006145;28;20068;-64
2023/08/14 13:51:36;;;;;;;3.97;1.83;;;;;;;;;;4990338;28;20053;-62
2023/08/14 13:54:03;;;;;;;4.78;2.00;;;;;;;;;;4991251;28;20044;-63
2023/08/14 13:56:29;;;;;;;4.38;1.98;;;;;;;;;;5005563;28;20400;-63
2023/08/14 13:58:56;;;;;;;8.82;1.80;;;;;;;;;;4991158;28;20409;-65
2023/08/14 14:01:22;;;;;;;4.85;1.63;;;;;;;;;;4990564;28;20051;-65
2023/08/14 14:03:49;;;;;;;5.53;1.90;;;;;;;;;;4990671;28;20073;-64
2023/08/14 14:06:15;;;;;;;4.20;1.80;;;;;;;;;;4991452;28;20585;-62
2023/08/14 14:08:42;;;;;;;8.27;1.65;;;;;;;;;;4989951;28;20112;-63
2023/08/14 14:11:09;;;;;;;3.80;1.65;;;;;;;;;;4991772;28;20037;-61
2023/08/14 14:13:35;;;;;;;10.32;2.00;;;;;;;;;;4991017;28;20062;-64
2023/08/14 14:16:03;;;;;;;4.95;1.60;;;;;;;;;;5006950;28;20537;-62
2023/08/14 14:18:29;;;;;;;5.18;1.55;;;;;;;;;;4991202;28;20049;-64
2023/08/14 14:20:56;;;;;;;5.07;1.92;;;;;;;;;;5009842;28;20052;-64
2023/08/14 14:23:23;;;;;;;5.65;1.50;;;;;;;;;;5009443;28;21490;-65
2023/08/14 14:25:49;;;;;;;5.25;1.38;;;;;;;;;;4995511;28;20048;-64
2023/08/14 14:28:16;;;;;;;4.70;1.48;;;;;;;;;;4996537;28;20042;-64
2023/08/14 14:30:42;;;;;;;5.03;1.40;;;;;;;;;;4994656;28;20049;-63
2023/08/14 14:33:09;;;;;;;4.18;1.40;;;;;;;;;;4995515;28;20057;-64
2023/08/14 14:35:36;;;;;;;8.38;1.40;;;;;;;;;;4994785;28;20105;-64
2023/08/14 14:38:02;;;;;;;2.97;1.15;;;;;;;;;;5009953;28;20034;-62
2023/08/14 14:40:29;;;;;;;4.30;1.58;;;;;;;;;;4994962;28;20470;-62
2023/08/14 14:42:56;;;;;;;4.50;1.20;;;;;;;;;;5009384;28;20034;-64
2023/08/14 14:45:22;;;;;;;5.28;1.40;;;;;;;;;;4996147;28;20038;-63
2023/08/14 14:47:49;;;;;;;6.07;1.50;;;;;;;;;;4994815;28;20136;-64
2023/08/14 14:50:16;;;;;;;8.52;1.63;;;;;;;;;;4995632;28;20115;-63
2023/08/14 14:52:42;;;;;;;5.47;1.60;;;;;;;;;;4994096;28;20100;-62
2023/08/14 14:55:09;;;;;;;3.00;1.20;;;;;;;;;;4995705;28;20059;-64
2023/08/14 14:57:36;;;;;;;3.58;1.42;;;;;;;;;;4994498;28;20545;-63